Terminal Aerodrome Forecast
Issued by NWS

Home | Current Version | Previous Version | Text Only | Print | Product List | Glossary On
Versions: 1 2 3 4 5 6 7 8 9 10 11 12 13 14 15 16 17
527
FTUS43 KMQT 082323
TAFIWD
TAF
KIWD 082323Z 0900/0924 32013G20KT 3SM -SHSN BLSN OVC030
     FM090100 33014G21KT 2SM -SHSN OVC020
     FM090200 34014G21KT 1 1/2SM -SHSN OVC010
     FM091100 31011G20KT 2SM -SHSN OVC010
     FM091500 28011G18KT 5SM -SHSN OVC020
     FM092300 27007KT P6SM -SHSN OVC025=

USA.gov is the U.S. government's official web portal to all federal, state and local government web resources and services.